sensor_id;sensor_type;location;lat;lon;timestamp;P1;durP1;ratioP1;P2;durP2;ratioP2
43160;SDS011;40968;52.342;5.528;2023-08-20T00:00:07;8.38;;;3.08;;
43160;SDS011;40968;52.342;5.528;2023-08-20T00:02:36;9.10;;;3.80;;
43160;SDS011;40968;52.342;5.528;2023-08-20T00:05:05;9.05;;;3.60;;
43160;SDS011;40968;52.342;5.528;2023-08-20T00:07:33;7.20;;;3.60;;
43160;SDS011;40968;52.342;5.528;2023-08-20T00:10:00;10.75;;;3.60;;
43160;SDS011;40968;52.342;5.528;2023-08-20T00:12:29;11.75;;;3.35;;
43160;SDS011;40968;52.342;5.528;2023-08-20T00:14:56;15.10;;;4.30;;
43160;SDS011;40968;52.342;5.528;2023-08-20T00:17:30;15.20;;;3.72;;
43160;SDS011;40968;52.342;5.528;2023-08-20T00:19:57;11.27;;;3.63;;
43160;SDS011;40968;52.342;5.528;2023-08-20T00:22:26;13.75;;;4.07;;
43160;SDS011;40968;52.342;5.528;2023-08-20T00:24:53;14.88;;;4.13;;
43160;SDS011;40968;52.342;5.528;2023-08-20T00:27:20;15.52;;;4.43;;
43160;SDS011;40968;52.342;5.528;2023-08-20T00:29:47;9.23;;;3.75;;
43160;SDS011;40968;52.342;5.528;2023-08-20T00:32:14;12.15;;;4.15;;
43160;SDS011;40968;52.342;5.528;2023-08-20T00:34:41;10.93;;;3.75;;
43160;SDS011;40968;52.342;5.528;2023-08-20T00:37:07;10.80;;;4.53;;
43160;SDS011;40968;52.342;5.528;2023-08-20T00:39:35;14.38;;;4.22;;
43160;SDS011;40968;52.342;5.528;2023-08-20T00:42:02;14.90;;;4.43;;
43160;SDS011;40968;52.342;5.528;2023-08-20T00:44:29;10.35;;;3.88;;
43160;SDS011;40968;52.342;5.528;2023-08-20T00:46:56;19.60;;;4.00;;
43160;SDS011;40968;52.342;5.528;2023-08-20T00:49:25;10.65;;;4.35;;
43160;SDS011;40968;52.342;5.528;2023-08-20T00:51:52;11.43;;;3.72;;
43160;SDS011;40968;52.342;5.528;2023-08-20T00:54:19;18.00;;;4.18;;
43160;SDS011;40968;52.342;5.528;2023-08-20T00:56:48;12.10;;;4.50;;
43160;SDS011;40968;52.342;5.528;2023-08-20T00:59:16;15.02;;;3.58;;
43160;SDS011;40968;52.342;5.528;2023-08-20T01:01:43;7.63;;;3.85;;
43160;SDS011;40968;52.342;5.528;2023-08-20T01:04:10;10.50;;;4.53;;
43160;SDS011;40968;52.342;5.528;2023-08-20T01:06:39;11.30;;;3.60;;
43160;SDS011;40968;52.342;5.528;2023-08-20T01:09:15;12.05;;;4.47;;
43160;SDS011;40968;52.342;5.528;2023-08-20T01:11:52;11.43;;;4.00;;
43160;SDS011;40968;52.342;5.528;2023-08-20T01:14:23;13.48;;;4.25;;
43160;SDS011;40968;52.342;5.528;2023-08-20T01:16:50;16.55;;;5.25;;
43160;SDS011;40968;52.342;5.528;2023-08-20T01:19:18;12.10;;;4.15;;
43160;SDS011;40968;52.342;5.528;2023-08-20T01:21:47;14.02;;;4.30;;
43160;SDS011;40968;52.342;5.528;2023-08-20T01:24:24;15.10;;;4.10;;
43160;SDS011;40968;52.342;5.528;2023-08-20T01:27:10;10.88;;;4.70;;
43160;SDS011;40968;52.342;5.528;2023-08-20T01:29:54;11.52;;;4.45;;
43160;SDS011;40968;52.342;5.528;2023-08-20T01:32:22;14.10;;;4.38;;
43160;SDS011;40968;52.342;5.528;2023-08-20T01:34:50;15.90;;;4.88;;
43160;SDS011;40968;52.342;5.528;2023-08-20T01:37:18;10.82;;;4.57;;
43160;SDS011;40968;52.342;5.528;2023-08-20T01:39:44;15.10;;;4.53;;
43160;SDS011;40968;52.342;5.528;2023-08-20T01:42:11;15.35;;;4.70;;
43160;SDS011;40968;52.342;5.528;2023-08-20T01:44:38;18.42;;;4.60;;
43160;SDS011;40968;52.342;5.528;2023-08-20T01:47:06;12.38;;;4.53;;
43160;SDS011;40968;52.342;5.528;2023-08-20T01:49:32;10.63;;;4.18;;
43160;SDS011;40968;52.342;5.528;2023-08-20T01:51:59;11.38;;;4.40;;
43160;SDS011;40968;52.342;5.528;2023-08-20T01:54:26;14.20;;;4.72;;
43160;SDS011;40968;52.342;5.528;2023-08-20T01:56:53;13.73;;;4.63;;
43160;SDS011;40968;52.342;5.528;2023-08-20T01:59:21;18.30;;;4.68;;
43160;SDS011;40968;52.342;5.528;2023-08-20T02:01:48;11.27;;;4.10;;
43160;SDS011;40968;52.342;5.528;2023-08-20T02:04:16;12.57;;;4.45;;
43160;SDS011;40968;52.342;5.528;2023-08-20T02:06:43;12.10;;;4.47;;
43160;SDS011;40968;52.342;5.528;2023-08-20T02:09:09;15.27;;;4.32;;
43160;SDS011;40968;52.342;5.528;2023-08-20T02:11:36;12.63;;;4.35;;
43160;SDS011;40968;52.342;5.528;2023-08-20T02:14:03;9.48;;;3.97;;
43160;SDS011;40968;52.342;5.528;2023-08-20T02:16:30;13.05;;;3.80;;
43160;SDS011;40968;52.342;5.528;2023-08-20T02:18:56;17.73;;;4.40;;
43160;SDS011;40968;52.342;5.528;2023-08-20T02:21:24;13.48;;;3.75;;
43160;SDS011;40968;52.342;5.528;2023-08-20T02:23:51;12.90;;;4.18;;
43160;SDS011;40968;52.342;5.528;2023-08-20T02:26:18;15.30;;;4.13;;
43160;SDS011;40968;52.342;5.528;2023-08-20T02:28:44;10.25;;;4.00;;
43160;SDS011;40968;52.342;5.528;2023-08-20T02:31:11;11.38;;;4.40;;
43160;SDS011;40968;52.342;5.528;2023-08-20T02:33:38;9.73;;;4.05;;
43160;SDS011;40968;52.342;5.528;2023-08-20T02:36:05;15.88;;;5.18;;
43160;SDS011;40968;52.342;5.528;2023-08-20T02:38:33;14.00;;;4.68;;
43160;SDS011;40968;52.342;5.528;2023-08-20T02:41:00;15.48;;;4.50;;
43160;SDS011;40968;52.342;5.528;2023-08-20T02:43:27;13.52;;;4.80;;
43160;SDS011;40968;52.342;5.528;2023-08-20T02:45:55;12.05;;;5.03;;
43160;SDS011;40968;52.342;5.528;2023-08-20T02:48:21;11.30;;;4.57;;
43160;SDS011;40968;52.342;5.528;2023-08-20T02:50:51;10.23;;;3.60;;
43160;SDS011;40968;52.342;5.528;2023-08-20T02:53:18;10.82;;;4.20;;
43160;SDS011;40968;52.342;5.528;2023-08-20T02:55:46;16.80;;;4.60;;
43160;SDS011;40968;52.342;5.528;2023-08-20T02:58:13;16.15;;;4.30;;
43160;SDS011;40968;52.342;5.528;2023-08-20T03:00:40;14.63;;;4.97;;
43160;SDS011;40968;52.342;5.528;2023-08-20T03:03:08;18.58;;;5.10;;
43160;SDS011;40968;52.342;5.528;2023-08-20T03:05:34;17.88;;;4.95;;
43160;SDS011;40968;52.342;5.528;2023-08-20T03:08:01;18.33;;;5.53;;
43160;SDS011;40968;52.342;5.528;2023-08-20T03:10:29;12.50;;;4.53;;
43160;SDS011;40968;52.342;5.528;2023-08-20T03:12:57;13.65;;;4.70;;
43160;SDS011;40968;52.342;5.528;2023-08-20T03:15:24;13.52;;;4.20;;
43160;SDS011;40968;52.342;5.528;2023-08-20T03:17:51;12.95;;;4.88;;
43160;SDS011;40968;52.342;5.528;2023-08-20T03:20:17;17.30;;;4.60;;
43160;SDS011;40968;52.342;5.528;2023-08-20T03:22:44;12.65;;;3.95;;
43160;SDS011;40968;52.342;5.528;2023-08-20T03:25:11;12.15;;;4.25;;
43160;SDS011;40968;52.342;5.528;2023-08-20T03:27:37;16.85;;;5.15;;
43160;SDS011;40968;52.342;5.528;2023-08-20T03:30:06;10.85;;;4.03;;
43160;SDS011;40968;52.342;5.528;2023-08-20T03:32:33;9.80;;;3.88;;
43160;SDS011;40968;52.342;5.528;2023-08-20T03:35:00;14.68;;;4.53;;
43160;SDS011;40968;52.342;5.528;2023-08-20T03:37:26;11.75;;;4.30;;
43160;SDS011;40968;52.342;5.528;2023-08-20T03:39:53;12.40;;;4.35;;
43160;SDS011;40968;52.342;5.528;2023-08-20T03:42:20;10.30;;;4.10;;
43160;SDS011;40968;52.342;5.528;2023-08-20T03:44:47;13.93;;;4.60;;
43160;SDS011;40968;52.342;5.528;2023-08-20T03:47:15;13.85;;;4.35;;
43160;SDS011;40968;52.342;5.528;2023-08-20T03:49:45;16.98;;;5.57;;
43160;SDS011;40968;52.342;5.528;2023-08-20T03:52:12;11.25;;;4.28;;
43160;SDS011;40968;52.342;5.528;2023-08-20T03:54:38;15.48;;;4.68;;
43160;SDS011;40968;52.342;5.528;2023-08-20T03:57:05;26.02;;;5.57;;
43160;SDS011;40968;52.342;5.528;2023-08-20T03:59:32;15.80;;;5.00;;
43160;SDS011;40968;52.342;5.528;2023-08-20T04:01:59;21.98;;;4.63;;
43160;SDS011;40968;52.342;5.528;2023-08-20T04:04:27;10.98;;;4.68;;
43160;SDS011;40968;52.342;5.528;2023-08-20T04:06:54;14.75;;;4.82;;
43160;SDS011;40968;52.342;5.528;2023-08-20T04:09:20;13.50;;;4.70;;
43160;SDS011;40968;52.342;5.528;2023-08-20T04:11:47;14.32;;;4.90;;
43160;SDS011;40968;52.342;5.528;2023-08-20T04:14:14;16.38;;;4.72;;
43160;SDS011;40968;52.342;5.528;2023-08-20T04:16:41;13.50;;;4.18;;
43160;SDS011;40968;52.342;5.528;2023-08-20T04:19:08;13.60;;;4.40;;
43160;SDS011;40968;52.342;5.528;2023-08-20T04:21:36;12.90;;;4.70;;
43160;SDS011;40968;52.342;5.528;2023-08-20T04:24:02;17.40;;;4.57;;
43160;SDS011;40968;52.342;5.528;2023-08-20T04:26:30;14.05;;;5.03;;
43160;SDS011;40968;52.342;5.528;2023-08-20T04:28:56;10.85;;;4.35;;
43160;SDS011;40968;52.342;5.528;2023-08-20T04:31:23;19.88;;;4.72;;
43160;SDS011;40968;52.342;5.528;2023-08-20T04:33:49;14.15;;;4.00;;
43160;SDS011;40968;52.342;5.528;2023-08-20T04:36:16;11.95;;;4.68;;
43160;SDS011;40968;52.342;5.528;2023-08-20T04:38:44;19.80;;;5.35;;
43160;SDS011;40968;52.342;5.528;2023-08-20T04:41:11;11.85;;;4.13;;
43160;SDS011;40968;52.342;5.528;2023-08-20T04:43:37;13.85;;;4.43;;
43160;SDS011;40968;52.342;5.528;2023-08-20T04:46:04;18.75;;;4.68;;
43160;SDS011;40968;52.342;5.528;2023-08-20T04:48:30;14.30;;;4.00;;
43160;SDS011;40968;52.342;5.528;2023-08-20T04:50:57;15.07;;;4.50;;
43160;SDS011;40968;52.342;5.528;2023-08-20T04:53:25;10.70;;;4.60;;
43160;SDS011;40968;52.342;5.528;2023-08-20T04:55:53;14.48;;;5.40;;
43160;SDS011;40968;52.342;5.528;2023-08-20T04:58:20;12.25;;;4.32;;
43160;SDS011;40968;52.342;5.528;2023-08-20T05:00:46;15.85;;;4.45;;
43160;SDS011;40968;52.342;5.528;2023-08-20T05:03:13;18.05;;;4.88;;
43160;SDS011;40968;52.342;5.528;2023-08-20T05:05:40;13.30;;;4.45;;
43160;SDS011;40968;52.342;5.528;2023-08-20T05:08:06;15.10;;;4.20;;
43160;SDS011;40968;52.342;5.528;2023-08-20T05:10:35;15.80;;;5.10;;
43160;SDS011;40968;52.342;5.528;2023-08-20T05:13:03;23.30;;;5.47;;
43160;SDS011;40968;52.342;5.528;2023-08-20T05:15:30;16.48;;;5.05;;
43160;SDS011;40968;52.342;5.528;2023-08-20T05:17:56;10.50;;;4.10;;
43160;SDS011;40968;52.342;5.528;2023-08-20T05:20:23;22.60;;;4.63;;
43160;SDS011;40968;52.342;5.528;2023-08-20T05:22:49;19.08;;;4.80;;
43160;SDS011;40968;52.342;5.528;2023-08-20T05:25:16;13.88;;;4.38;;
43160;SDS011;40968;52.342;5.528;2023-08-20T05:27:43;15.55;;;4.65;;
43160;SDS011;40968;52.342;5.528;2023-08-20T05:30:11;14.35;;;3.70;;
43160;SDS011;40968;52.342;5.528;2023-08-20T05:32:38;15.43;;;4.63;;
43160;SDS011;40968;52.342;5.528;2023-08-20T05:35:05;12.27;;;4.63;;
43160;SDS011;40968;52.342;5.528;2023-08-20T05:37:32;17.42;;;4.90;;
43160;SDS011;40968;52.342;5.528;2023-08-20T05:39:59;13.82;;;4.68;;
43160;SDS011;40968;52.342;5.528;2023-08-20T05:42:25;20.90;;;5.30;;
43160;SDS011;40968;52.342;5.528;2023-08-20T05:44:52;18.02;;;4.95;;
43160;SDS011;40968;52.342;5.528;2023-08-20T05:47:20;23.90;;;5.10;;
43160;SDS011;40968;52.342;5.528;2023-08-20T05:49:47;14.45;;;4.90;;
43160;SDS011;40968;52.342;5.528;2023-08-20T05:52:13;13.73;;;3.85;;
43160;SDS011;40968;52.342;5.528;2023-08-20T05:54:40;18.23;;;4.82;;
43160;SDS011;40968;52.342;5.528;2023-08-20T05:57:07;20.20;;;5.35;;
43160;SDS011;40968;52.342;5.528;2023-08-20T05:59:33;16.70;;;5.28;;
43160;SDS011;40968;52.342;5.528;2023-08-20T06:02:00;18.48;;;5.13;;
43160;SDS011;40968;52.342;5.528;2023-08-20T06:04:29;14.07;;;4.85;;
43160;SDS011;40968;52.342;5.528;2023-08-20T06:06:55;13.60;;;4.75;;
43160;SDS011;40968;52.342;5.528;2023-08-20T06:09:22;22.02;;;5.40;;
43160;SDS011;40968;52.342;5.528;2023-08-20T06:11:49;16.92;;;4.90;;
43160;SDS011;40968;52.342;5.528;2023-08-20T06:14:16;14.40;;;4.60;;
43160;SDS011;40968;52.342;5.528;2023-08-20T06:16:43;19.27;;;4.90;;
43160;SDS011;40968;52.342;5.528;2023-08-20T06:19:10;17.38;;;4.43;;
43160;SDS011;40968;52.342;5.528;2023-08-20T06:21:38;10.65;;;4.20;;
43160;SDS011;40968;52.342;5.528;2023-08-20T06:24:05;22.65;;;5.47;;
43160;SDS011;40968;52.342;5.528;2023-08-20T06:26:32;22.60;;;4.28;;
43160;SDS011;40968;52.342;5.528;2023-08-20T06:28:59;16.65;;;4.22;;
43160;SDS011;40968;52.342;5.528;2023-08-20T06:31:25;14.75;;;4.38;;
43160;SDS011;40968;52.342;5.528;2023-08-20T06:33:52;12.30;;;4.35;;
43160;SDS011;40968;52.342;5.528;2023-08-20T06:36:19;19.75;;;4.93;;
43160;SDS011;40968;52.342;5.528;2023-08-20T06:38:46;11.43;;;4.88;;
43160;SDS011;40968;52.342;5.528;2023-08-20T06:41:13;12.23;;;4.40;;
43160;SDS011;40968;52.342;5.528;2023-08-20T06:43:40;16.67;;;4.22;;
43160;SDS011;40968;52.342;5.528;2023-08-20T06:46:07;14.15;;;4.10;;
43160;SDS011;40968;52.342;5.528;2023-08-20T06:48:34;14.57;;;4.10;;
43160;SDS011;40968;52.342;5.528;2023-08-20T06:51:07;14.35;;;3.95;;
43160;SDS011;40968;52.342;5.528;2023-08-20T06:53:34;11.75;;;4.10;;
43160;SDS011;40968;52.342;5.528;2023-08-20T06:56:02;15.90;;;4.07;;
43160;SDS011;40968;52.342;5.528;2023-08-20T06:58:29;15.98;;;3.60;;
43160;SDS011;40968;52.342;5.528;2023-08-20T07:00:55;20.63;;;3.95;;
43160;SDS011;40968;52.342;5.528;2023-08-20T07:03:32;14.77;;;3.53;;
43160;SDS011;40968;52.342;5.528;2023-08-20T07:05:58;14.90;;;3.65;;
43160;SDS011;40968;52.342;5.528;2023-08-20T07:08:25;10.70;;;4.18;;
43160;SDS011;40968;52.342;5.528;2023-08-20T07:10:52;12.75;;;3.60;;
43160;SDS011;40968;52.342;5.528;2023-08-20T07:13:20;12.95;;;3.55;;
43160;SDS011;40968;52.342;5.528;2023-08-20T07:15:46;13.75;;;3.45;;
43160;SDS011;40968;52.342;5.528;2023-08-20T07:18:13;14.20;;;4.32;;
43160;SDS011;40968;52.342;5.528;2023-08-20T07:20:41;17.67;;;3.92;;
43160;SDS011;40968;52.342;5.528;2023-08-20T07:23:08;11.80;;;3.50;;
43160;SDS011;40968;52.342;5.528;2023-08-20T07:25:35;21.95;;;4.43;;
43160;SDS011;40968;52.342;5.528;2023-08-20T07:28:02;12.75;;;3.25;;
43160;SDS011;40968;52.342;5.528;2023-08-20T07:30:31;17.80;;;4.00;;
43160;SDS011;40968;52.342;5.528;2023-08-20T07:32:58;15.32;;;3.88;;
43160;SDS011;40968;52.342;5.528;2023-08-20T07:35:25;12.20;;;3.53;;
43160;SDS011;40968;52.342;5.528;2023-08-20T07:37:51;15.20;;;3.63;;
43160;SDS011;40968;52.342;5.528;2023-08-20T07:40:18;11.82;;;3.50;;
43160;SDS011;40968;52.342;5.528;2023-08-20T07:42:45;18.02;;;3.97;;
43160;SDS011;40968;52.342;5.528;2023-08-20T07:45:12;16.67;;;3.60;;
43160;SDS011;40968;52.342;5.528;2023-08-20T07:47:40;18.42;;;3.35;;
43160;SDS011;40968;52.342;5.528;2023-08-20T07:50:07;22.63;;;3.88;;
43160;SDS011;40968;52.342;5.528;2023-08-20T07:52:34;10.85;;;3.40;;
43160;SDS011;40968;52.342;5.528;2023-08-20T07:55:00;21.33;;;3.50;;
43160;SDS011;40968;52.342;5.528;2023-08-20T07:57:27;11.27;;;3.15;;
43160;SDS011;40968;52.342;5.528;2023-08-20T07:59:54;20.58;;;3.85;;
43160;SDS011;40968;52.342;5.528;2023-08-20T08:02:20;9.40;;;2.92;;
43160;SDS011;40968;52.342;5.528;2023-08-20T08:04:48;21.08;;;4.68;;
43160;SDS011;40968;52.342;5.528;2023-08-20T08:07:15;16.40;;;3.47;;
43160;SDS011;40968;52.342;5.528;2023-08-20T08:09:42;15.55;;;3.50;;
43160;SDS011;40968;52.342;5.528;2023-08-20T08:12:08;13.23;;;3.80;;
43160;SDS011;40968;52.342;5.528;2023-08-20T08:14:35;13.43;;;3.70;;
43160;SDS011;40968;52.342;5.528;2023-08-20T08:17:01;11.80;;;3.40;;
43160;SDS011;40968;52.342;5.528;2023-08-20T08:19:29;16.60;;;3.80;;
43160;SDS011;40968;52.342;5.528;2023-08-20T08:21:57;10.48;;;3.38;;
43160;SDS011;40968;52.342;5.528;2023-08-20T08:24:23;9.95;;;3.95;;
43160;SDS011;40968;52.342;5.528;2023-08-20T08:26:50;8.98;;;2.97;;
43160;SDS011;40968;52.342;5.528;2023-08-20T08:29:17;15.20;;;3.35;;
43160;SDS011;40968;52.342;5.528;2023-08-20T08:31:43;10.02;;;3.15;;
43160;SDS011;40968;52.342;5.528;2023-08-20T08:34:10;14.77;;;4.10;;
43160;SDS011;40968;52.342;5.528;2023-08-20T08:36:37;15.45;;;3.10;;
43160;SDS011;40968;52.342;5.528;2023-08-20T08:39:05;16.63;;;3.13;;
43160;SDS011;40968;52.342;5.528;2023-08-20T08:41:32;7.63;;;2.50;;
43160;SDS011;40968;52.342;5.528;2023-08-20T08:44:01;16.80;;;3.20;;
43160;SDS011;40968;52.342;5.528;2023-08-20T08:46:29;20.13;;;3.17;;
43160;SDS011;40968;52.342;5.528;2023-08-20T08:48:56;13.85;;;3.95;;
43160;SDS011;40968;52.342;5.528;2023-08-20T08:51:25;17.48;;;3.35;;
43160;SDS011;40968;52.342;5.528;2023-08-20T08:53:52;10.35;;;3.08;;
43160;SDS011;40968;52.342;5.528;2023-08-20T08:56:21;17.52;;;3.20;;
43160;SDS011;40968;52.342;5.528;2023-08-20T08:58:48;11.00;;;2.30;;
43160;SDS011;40968;52.342;5.528;2023-08-20T09:01:14;27.83;;;4.78;;
43160;SDS011;40968;52.342;5.528;2023-08-20T09:03:41;10.80;;;3.25;;
43160;SDS011;40968;52.342;5.528;2023-08-20T09:06:08;9.80;;;2.90;;
43160;SDS011;40968;52.342;5.528;2023-08-20T09:08:35;15.65;;;3.17;;
43160;SDS011;40968;52.342;5.528;2023-08-20T09:11:02;23.67;;;3.45;;
43160;SDS011;40968;52.342;5.528;2023-08-20T09:13:34;11.18;;;3.50;;
43160;SDS011;40968;52.342;5.528;2023-08-20T09:16:03;13.35;;;3.05;;
43160;SDS011;40968;52.342;5.528;2023-08-20T09:18:30;15.57;;;2.45;;
43160;SDS011;40968;52.342;5.528;2023-08-20T09:20:57;13.60;;;3.03;;
43160;SDS011;40968;52.342;5.528;2023-08-20T09:23:25;5.22;;;1.75;;
43160;SDS011;40968;52.342;5.528;2023-08-20T09:25:56;8.23;;;2.88;;
43160;SDS011;40968;52.342;5.528;2023-08-20T09:28:23;7.00;;;2.80;;
43160;SDS011;40968;52.342;5.528;2023-08-20T09:30:57;8.00;;;2.00;;
43160;SDS011;40968;52.342;5.528;2023-08-20T09:33:26;6.18;;;2.10;;
43160;SDS011;40968;52.342;5.528;2023-08-20T09:35:53;9.05;;;2.08;;
43160;SDS011;40968;52.342;5.528;2023-08-20T09:38:21;10.30;;;2.30;;
43160;SDS011;40968;52.342;5.528;2023-08-20T09:40:49;14.98;;;2.50;;
43160;SDS011;40968;52.342;5.528;2023-08-20T09:43:17;10.40;;;1.98;;
43160;SDS011;40968;52.342;5.528;2023-08-20T09:45:45;4.30;;;1.80;;
43160;SDS011;40968;52.342;5.528;2023-08-20T09:48:14;9.35;;;1.80;;
43160;SDS011;40968;52.342;5.528;2023-08-20T09:50:45;7.80;;;2.08;;
43160;SDS011;40968;52.342;5.528;2023-08-20T09:53:16;4.13;;;1.50;;
43160;SDS011;40968;52.342;5.528;2023-08-20T09:55:48;6.72;;;1.58;;
43160;SDS011;40968;52.342;5.528;2023-08-20T09:58:17;7.20;;;1.95;;
43160;SDS011;40968;52.342;5.528;2023-08-20T10:00:46;3.92;;;1.50;;
43160;SDS011;40968;52.342;5.528;2023-08-20T10:03:16;5.72;;;1.70;;
43160;SDS011;40968;52.342;5.528;2023-08-20T10:05:44;7.15;;;1.63;;
43160;SDS011;40968;52.342;5.528;2023-08-20T10:08:12;6.38;;;2.10;;
43160;SDS011;40968;52.342;5.528;2023-08-20T10:10:40;6.07;;;1.73;;
43160;SDS011;40968;52.342;5.528;2023-08-20T10:13:07;5.78;;;1.48;;
43160;SDS011;40968;52.342;5.528;2023-08-20T10:15:34;6.82;;;1.92;;
43160;SDS011;40968;52.342;5.528;2023-08-20T10:18:03;6.78;;;1.60;;
43160;SDS011;40968;52.342;5.528;2023-08-20T10:20:31;4.78;;;1.75;;
43160;SDS011;40968;52.342;5.528;2023-08-20T10:23:00;10.02;;;1.70;;
43160;SDS011;40968;52.342;5.528;2023-08-20T10:25:29;3.28;;;2.13;;
43160;SDS011;40968;52.342;5.528;2023-08-20T10:28:10;7.03;;;2.05;;
43160;SDS011;40968;52.342;5.528;2023-08-20T10:30:39;6.20;;;1.50;;
43160;SDS011;40968;52.342;5.528;2023-08-20T10:33:36;8.38;;;1.50;;
43160;SDS011;40968;52.342;5.528;2023-08-20T10:36:09;5.25;;;1.50;;
43160;SDS011;40968;52.342;5.528;2023-08-20T10:38:42;11.73;;;2.10;;
43160;SDS011;40968;52.342;5.528;2023-08-20T10:41:12;7.13;;;1.70;;
43160;SDS011;40968;52.342;5.528;2023-08-20T10:43:45;11.35;;;1.75;;
43160;SDS011;40968;52.342;5.528;2023-08-20T10:46:14;4.57;;;1.67;;
43160;SDS011;40968;52.342;5.528;2023-08-20T10:48:42;8.27;;;1.55;;
43160;SDS011;40968;52.342;5.528;2023-08-20T10:51:14;12.63;;;2.65;;
43160;SDS011;40968;52.342;5.528;2023-08-20T10:53:42;10.10;;;2.35;;
43160;SDS011;40968;52.342;5.528;2023-08-20T10:56:13;7.63;;;1.90;;
43160;SDS011;40968;52.342;5.528;2023-08-20T10:58:41;4.45;;;1.65;;
43160;SDS011;40968;52.342;5.528;2023-08-20T11:01:12;10.55;;;1.70;;
43160;SDS011;40968;52.342;5.528;2023-08-20T11:03:44;8.95;;;2.58;;
43160;SDS011;40968;52.342;5.528;2023-08-20T11:06:11;21.23;;;4.60;;
43160;SDS011;40968;52.342;5.528;2023-08-20T11:08:39;13.45;;;1.88;;
43160;SDS011;40968;52.342;5.528;2023-08-20T11:11:08;8.75;;;1.88;;
43160;SDS011;40968;52.342;5.528;2023-08-20T11:13:35;5.20;;;1.80;;
43160;SDS011;40968;52.342;5.528;2023-08-20T11:16:02;6.80;;;2.10;;
43160;SDS011;40968;52.342;5.528;2023-08-20T11:18:30;4.60;;;1.90;;
43160;SDS011;40968;52.342;5.528;2023-08-20T11:20:59;4.70;;;1.58;;
43160;SDS011;40968;52.342;5.528;2023-08-20T11:23:26;11.77;;;1.60;;
43160;SDS011;40968;52.342;5.528;2023-08-20T11:25:54;5.05;;;1.40;;
43160;SDS011;40968;52.342;5.528;2023-08-20T11:28:21;6.93;;;1.38;;
43160;SDS011;40968;52.342;5.528;2023-08-20T11:30:47;6.85;;;1.60;;
43160;SDS011;40968;52.342;5.528;2023-08-20T11:33:16;6.57;;;1.60;;
43160;SDS011;40968;52.342;5.528;2023-08-20T11:35:42;9.68;;;1.63;;
43160;SDS011;40968;52.342;5.528;2023-08-20T11:38:09;6.68;;;2.05;;
43160;SDS011;40968;52.342;5.528;2023-08-20T11:40:36;7.95;;;1.92;;
43160;SDS011;40968;52.342;5.528;2023-08-20T11:43:05;7.57;;;1.80;;
43160;SDS011;40968;52.342;5.528;2023-08-20T11:45:33;5.40;;;1.73;;
43160;SDS011;40968;52.342;5.528;2023-08-20T11:48:09;6.10;;;1.73;;
43160;SDS011;40968;52.342;5.528;2023-08-20T11:50:36;6.25;;;1.50;;
43160;SDS011;40968;52.342;5.528;2023-08-20T11:53:03;8.77;;;1.60;;
43160;SDS011;40968;52.342;5.528;2023-08-20T11:55:30;6.03;;;1.65;;
43160;SDS011;40968;52.342;5.528;2023-08-20T11:57:57;4.00;;;1.58;;
43160;SDS011;40968;52.342;5.528;2023-08-20T12:00:25;58.33;;;8.05;;
43160;SDS011;40968;52.342;5.528;2023-08-20T12:02:53;10.32;;;2.10;;
43160;SDS011;40968;52.342;5.528;2023-08-20T12:05:21;5.72;;;1.45;;
43160;SDS011;40968;52.342;5.528;2023-08-20T12:07:55;29.10;;;4.03;;
43160;SDS011;40968;52.342;5.528;2023-08-20T12:10:23;8.88;;;1.63;;
43160;SDS011;40968;52.342;5.528;2023-08-20T12:12:50;5.05;;;1.20;;
43160;SDS011;40968;52.342;5.528;2023-08-20T12:15:17;23.13;;;3.70;;
43160;SDS011;40968;52.342;5.528;2023-08-20T12:17:55;10.25;;;1.52;;
43160;SDS011;40968;52.342;5.528;2023-08-20T12:20:27;4.07;;;1.75;;
43160;SDS011;40968;52.342;5.528;2023-08-20T12:22:55;3.80;;;1.35;;
43160;SDS011;40968;52.342;5.528;2023-08-20T12:25:22;6.90;;;1.33;;
43160;SDS011;40968;52.342;5.528;2023-08-20T12:27:49;3.17;;;1.35;;
43160;SDS011;40968;52.342;5.528;2023-08-20T12:30:16;4.25;;;1.30;;
43160;SDS011;40968;52.342;5.528;2023-08-20T12:32:43;47.72;;;5.35;;
43160;SDS011;40968;52.342;5.528;2023-08-20T12:35:11;5.15;;;1.50;;
43160;SDS011;40968;52.342;5.528;2023-08-20T12:37:38;7.43;;;1.40;;
43160;SDS011;40968;52.342;5.528;2023-08-20T12:40:05;8.50;;;1.92;;
43160;SDS011;40968;52.342;5.528;2023-08-20T12:42:36;5.22;;;2.38;;
43160;SDS011;40968;52.342;5.528;2023-08-20T12:45:04;26.52;;;3.85;;
43160;SDS011;40968;52.342;5.528;2023-08-20T12:47:31;2.53;;;1.10;;
43160;SDS011;40968;52.342;5.528;2023-08-20T12:49:58;4.88;;;1.05;;
43160;SDS011;40968;52.342;5.528;2023-08-20T12:52:26;5.88;;;1.27;;
43160;SDS011;40968;52.342;5.528;2023-08-20T12:54:53;4.32;;;1.30;;
43160;SDS011;40968;52.342;5.528;2023-08-20T12:57:19;3.30;;;1.33;;
43160;SDS011;40968;52.342;5.528;2023-08-20T12:59:46;5.95;;;1.50;;
43160;SDS011;40968;52.342;5.528;2023-08-20T13:02:13;3.72;;;1.00;;
43160;SDS011;40968;52.342;5.528;2023-08-20T13:04:41;12.48;;;1.73;;
43160;SDS011;40968;52.342;5.528;2023-08-20T13:07:08;19.08;;;1.85;;
43160;SDS011;40968;52.342;5.528;2023-08-20T13:09:36;4.57;;;0.95;;
43160;SDS011;40968;52.342;5.528;2023-08-20T13:12:04;6.05;;;1.40;;
43160;SDS011;40968;52.342;5.528;2023-08-20T13:14:34;17.13;;;2.00;;
43160;SDS011;40968;52.342;5.528;2023-08-20T13:17:01;91.47;;;8.27;;
43160;SDS011;40968;52.342;5.528;2023-08-20T13:19:28;6.32;;;1.52;;
43160;SDS011;40968;52.342;5.528;2023-08-20T13:21:55;9.20;;;1.15;;
43160;SDS011;40968;52.342;5.528;2023-08-20T13:24:22;4.85;;;1.30;;
43160;SDS011;40968;52.342;5.528;2023-08-20T13:26:50;3.47;;;0.93;;
43160;SDS011;40968;52.342;5.528;2023-08-20T13:29:18;8.57;;;1.13;;
43160;SDS011;40968;52.342;5.528;2023-08-20T13:31:44;2.58;;;1.05;;
43160;SDS011;40968;52.342;5.528;2023-08-20T13:34:11;5.90;;;1.30;;
43160;SDS011;40968;52.342;5.528;2023-08-20T13:36:37;5.38;;;1.50;;
43160;SDS011;40968;52.342;5.528;2023-08-20T13:39:04;4.93;;;1.38;;
43160;SDS011;40968;52.342;5.528;2023-08-20T13:41:31;7.05;;;1.50;;
43160;SDS011;40968;52.342;5.528;2023-08-20T13:43:59;3.45;;;0.90;;
43160;SDS011;40968;52.342;5.528;2023-08-20T13:46:25;4.22;;;1.15;;
43160;SDS011;40968;52.342;5.528;2023-08-20T13:48:52;7.80;;;1.50;;
43160;SDS011;40968;52.342;5.528;2023-08-20T13:51:19;9.00;;;1.73;;
43160;SDS011;40968;52.342;5.528;2023-08-20T13:53:45;2.42;;;1.10;;
43160;SDS011;40968;52.342;5.528;2023-08-20T13:56:12;3.50;;;1.17;;
43160;SDS011;40968;52.342;5.528;2023-08-20T13:58:38;3.22;;;1.30;;
43160;SDS011;40968;52.342;5.528;2023-08-20T14:01:07;8.45;;;1.30;;
43160;SDS011;40968;52.342;5.528;2023-08-20T14:03:33;22.30;;;4.07;;
43160;SDS011;40968;52.342;5.528;2023-08-20T14:06:00;8.73;;;1.38;;
43160;SDS011;40968;52.342;5.528;2023-08-20T14:08:28;42.60;;;5.45;;
43160;SDS011;40968;52.342;5.528;2023-08-20T14:10:54;114.50;;;16.25;;
43160;SDS011;40968;52.342;5.528;2023-08-20T14:13:21;35.80;;;5.80;;
43160;SDS011;40968;52.342;5.528;2023-08-20T14:15:47;7.68;;;1.50;;
43160;SDS011;40968;52.342;5.528;2023-08-20T14:18:16;4.25;;;1.38;;
43160;SDS011;40968;52.342;5.528;2023-08-20T14:20:42;5.47;;;1.52;;
43160;SDS011;40968;52.342;5.528;2023-08-20T14:23:09;53.42;;;6.32;;
43160;SDS011;40968;52.342;5.528;2023-08-20T14:25:36;3.50;;;1.40;;
43160;SDS011;40968;52.342;5.528;2023-08-20T14:28:05;6.55;;;1.30;;
43160;SDS011;40968;52.342;5.528;2023-08-20T14:30:32;9.25;;;1.65;;
43160;SDS011;40968;52.342;5.528;2023-08-20T14:33:02;19.02;;;3.58;;
43160;SDS011;40968;52.342;5.528;2023-08-20T14:35:32;3.58;;;1.30;;
43160;SDS011;40968;52.342;5.528;2023-08-20T14:37:58;8.77;;;1.70;;
43160;SDS011;40968;52.342;5.528;2023-08-20T14:40:25;10.63;;;1.50;;